Time;durP1;ratioP1;P1;durP2;ratioP2;P2;SDS_P1;SDS_P2;PMS_P1;PMS_P2;Temp;Humidity;BMP_temperature;BMP_pressure;BME280_temperature;BME280_humidity;BME280_pressure;Samples;Min_cycle;Max_cycle;Signal;HPM_P1;HPM_P2
2023/10/02 00:02:01;;;;;;;5.63;2.90;;;26.70;69.10;;;;;;5081606;27;88180;-54
2023/10/02 00:04:34;;;;;;;4.93;3.03;;;26.70;69.10;;;;;;5082468;27;87659;-54
2023/10/02 00:07:08;;;;;;;5.77;3.17;;;26.70;69.10;;;;;;5078869;27;88638;-54
2023/10/02 00:09:36;;;;;;;4.73;2.60;;;26.70;69.00;;;;;;5075134;27;88674;-55
2023/10/02 00:12:11;;;;;;;5.90;2.53;;;26.70;69.00;;;;;;5076507;27;87558;-54
2023/10/02 00:14:40;;;;;;;5.33;2.40;;;26.70;68.90;;;;;;5073711;27;87519;-54
2023/10/02 00:17:14;;;;;;;6.37;3.63;;;26.70;69.00;;;;;;5074265;27;89728;-55
2023/10/02 00:19:44;;;;;;;4.40;2.50;;;26.70;69.00;;;;;;5077528;27;88301;-55
2023/10/02 00:22:34;;;;;;;4.30;2.70;;;26.60;68.80;;;;;;5074047;27;87440;-55
2023/10/02 00:25:04;;;;;;;6.60;3.20;;;26.60;68.90;;;;;;5080550;27;88306;-54
2023/10/02 00:27:34;;;;;;;4.03;2.07;;;26.60;68.90;;;;;;5083414;27;89734;-54
2023/10/02 00:30:02;;;;;;;6.23;3.10;;;26.80;69.00;;;;;;5077263;27;88156;-54
2023/10/02 00:32:34;;;;;;;7.13;2.90;;;26.60;68.90;;;;;;5077341;27;87428;-54
2023/10/02 00:35:03;;;;;;;4.80;2.50;;;26.60;68.90;;;;;;5078641;27;87628;-55
2023/10/02 00:37:44;;;;;;;3.97;2.40;;;26.60;68.90;;;;;;5080180;27;88534;-55
2023/10/02 00:40:15;;;;;;;6.00;2.57;;;26.60;68.90;;;;;;5075819;27;89149;-55
2023/10/02 00:42:42;;;;;;;6.23;2.73;;;26.60;68.90;;;;;;5077795;27;87583;-54
2023/10/02 00:45:10;;;;;;;4.43;3.10;;;26.60;68.90;;;;;;5075044;27;87659;-54
2023/10/02 00:47:45;;;;;;;6.27;2.60;;;26.60;68.90;;;;;;5076873;27;88486;-54
2023/10/02 00:50:20;;;;;;;4.80;2.97;;;26.60;68.90;;;;;;5076103;27;88026;-54
2023/10/02 00:52:58;;;;;;;5.93;2.80;;;26.60;68.90;;;;;;5073334;27;87582;-54
2023/10/02 00:55:27;;;;;;;5.97;3.23;;;26.50;68.80;;;;;;5074862;27;87566;-54
2023/10/02 00:57:57;;;;;;;4.83;2.90;;;26.60;68.90;;;;;;5075856;27;88497;-54
2023/10/02 01:00:35;;;;;;;4.07;2.47;;;26.50;68.90;;;;;;5074940;27;88231;-54
2023/10/02 01:03:08;;;;;;;5.47;2.60;;;26.50;68.90;;;;;;5074744;27;87477;-54
2023/10/02 01:05:47;;;;;;;4.53;3.27;;;26.50;68.90;;;;;;5079665;27;87511;-54
2023/10/02 01:08:24;;;;;;;7.70;2.67;;;26.50;68.80;;;;;;5073116;27;89168;-54
2023/10/02 01:10:57;;;;;;;7.57;3.43;;;26.50;68.90;;;;;;5076270;27;89768;-54
2023/10/02 01:13:29;;;;;;;7.47;3.60;;;26.50;68.90;;;;;;5071499;27;87509;-54
2023/10/02 01:15:59;;;;;;;6.13;3.83;;;26.50;68.90;;;;;;5075438;27;87661;-54
2023/10/02 01:18:29;;;;;;;5.40;3.37;;;26.50;68.60;;;;;;5074746;27;88712;-54
2023/10/02 01:20:59;;;;;;;7.23;3.83;;;26.50;68.80;;;;;;5072986;27;88125;-54
2023/10/02 01:23:28;;;;;;;5.70;3.93;;;26.50;69.60;;;;;;5069851;27;87418;-54
2023/10/02 01:26:00;;;;;;;8.47;4.07;;;26.50;68.80;;;;;;5073488;27;88378;-54
2023/10/02 01:28:32;;;;;;;8.90;4.17;;;26.50;68.70;;;;;;5075105;27;88627;-54
2023/10/02 01:31:31;;;;;;;7.27;4.00;;;26.50;68.90;;;;;;5073133;27;87933;-54
2023/10/02 01:33:49;;;;;;;8.43;4.37;;;26.50;68.80;;;;;;5070404;27;87632;-54
2023/10/02 01:36:19;;;;;;;5.73;3.73;;;26.50;68.70;;;;;;5074547;27;87226;-54
2023/10/02 01:38:47;;;;;;;8.03;3.73;;;26.50;68.70;;;;;;5072475;27;88366;-54
2023/10/02 01:41:17;;;;;;;8.50;4.20;;;26.50;68.70;;;;;;5075960;27;89052;-54
2023/10/02 01:43:45;;;;;;;5.83;4.10;;;26.50;69.50;;;;;;5075902;27;87464;-54
2023/10/02 01:46:17;;;;;;;7.50;4.03;;;26.40;68.70;;;;;;5076769;27;87558;-54
2023/10/02 01:48:48;;;;;;;7.53;4.20;;;26.50;68.60;;;;;;5074293;27;89915;-54
2023/10/02 01:51:26;;;;;;;8.20;4.00;;;26.50;68.70;;;;;;5073312;27;89142;-54
2023/10/02 01:53:56;;;;;;;8.30;4.43;;;26.50;68.60;;;;;;5072393;27;87604;-54
2023/10/02 01:56:27;;;;;;;9.43;4.67;;;26.50;68.60;;;;;;5072336;27;87635;-54
2023/10/02 01:59:08;;;;;;;7.50;3.97;;;26.50;68.80;;;;;;5073451;27;90034;-54
2023/10/02 02:01:46;;;;;;;8.43;4.43;;;26.50;68.60;;;;;;5070720;27;88027;-54
2023/10/02 02:04:15;;;;;;;9.57;4.50;;;26.50;68.80;;;;;;5075804;27;87626;-55
2023/10/02 02:06:52;;;;;;;8.67;4.87;;;26.40;68.60;;;;;;5072347;27;87701;-54
2023/10/02 02:09:23;;;;;;;9.40;5.30;;;26.40;68.70;;;;;;5070948;27;89666;-55
2023/10/02 02:12:06;;;;;;;8.47;4.63;;;26.40;68.60;;;;;;5070196;27;87975;-54
2023/10/02 02:14:40;;;;;;;10.67;4.77;;;26.40;68.60;;;;;;5075577;27;87545;-54
2023/10/02 02:17:11;;;;;;;8.53;4.60;;;26.40;68.60;;;;;;5072113;27;87568;-54
2023/10/02 02:19:47;;;;;;;7.07;4.30;;;26.40;68.60;;;;;;5069421;27;89954;-54
2023/10/02 02:22:17;;;;;;;8.17;4.20;;;26.40;68.70;;;;;;5073472;27;87874;-54
2023/10/02 02:24:46;;;;;;;8.30;4.80;;;26.40;68.60;;;;;;5070976;27;87999;-54
2023/10/02 02:27:17;;;;;;;9.70;5.37;;;26.40;68.70;;;;;;5071320;27;87645;-54
2023/10/02 02:29:46;;;;;;;11.93;5.67;;;26.40;68.70;;;;;;5072973;27;88614;-54
2023/10/02 02:32:19;;;;;;;8.97;5.43;;;26.40;68.70;;;;;;5072619;27;88058;-54
2023/10/02 02:34:48;;;;;;;13.50;5.93;;;26.40;68.80;;;;;;5071199;27;87316;-54
2023/10/02 02:37:16;;;;;;;8.80;5.50;;;26.40;68.80;;;;;;5071475;27;87549;-54
2023/10/02 02:39:45;;;;;;;10.97;5.70;;;26.40;68.70;;;;;;5072740;27;88603;-54
2023/10/02 02:42:22;;;;;;;7.77;5.17;;;26.40;68.70;;;;;;5072141;27;87934;-54
2023/10/02 02:44:50;;;;;;;13.70;5.77;;;26.40;68.90;;;;;;5069728;27;88584;-54
2023/10/02 02:47:21;;;;;;;9.03;6.57;;;26.40;68.80;;;;;;5071698;27;87321;-54
2023/10/02 02:49:51;;;;;;;8.73;6.60;;;26.40;68.90;;;;;;5073730;27;88673;-54
2023/10/02 02:52:21;;;;;;;10.47;5.90;;;26.40;68.70;;;;;;5071424;27;88057;-54
2023/10/02 02:54:58;;;;;;;8.47;6.27;;;26.40;68.70;;;;;;5070940;27;87482;-55
2023/10/02 02:57:28;;;;;;;9.73;5.87;;;26.40;68.90;;;;;;5070416;27;87823;-54
2023/10/02 03:00:24;;;;;;;12.13;6.17;;;26.40;68.90;;;;;;5074313;27;88549;-54
2023/10/02 03:02:46;;;;;;;12.03;6.17;;;26.40;68.80;;;;;;5069337;27;87569;-55
2023/10/02 03:05:16;;;;;;;8.93;5.57;;;26.40;68.90;;;;;;5071278;27;87596;-54
2023/10/02 03:07:44;;;;;;;12.17;7.17;;;26.40;68.70;;;;;;5072505;27;87783;-54
2023/10/02 03:10:12;;;;;;;11.10;5.90;;;26.40;68.90;;;;;;5073540;27;89674;-54
2023/10/02 03:12:45;;;;;;;12.10;6.83;;;26.40;68.90;;;;;;5072416;27;87791;-54
2023/10/02 03:15:15;;;;;;;11.73;7.03;;;26.40;68.90;;;;;;5071003;27;87304;-54
2023/10/02 03:17:43;;;;;;;11.63;5.93;;;26.30;68.70;;;;;;5076246;27;87840;-54
2023/10/02 03:20:22;;;;;;;10.93;6.23;;;26.40;68.90;;;;;;5060886;27;89656;-54
2023/10/02 03:22:53;;;;;;;11.73;6.07;;;26.40;68.80;;;;;;5077566;27;89154;-54
2023/10/02 03:25:40;;;;;;;12.73;6.77;;;26.40;68.80;;;;;;5078896;27;87545;-54
2023/10/02 03:28:16;;;;;;;9.57;5.93;;;26.30;69.50;;;;;;5079225;27;87445;-54
2023/10/02 03:30:47;;;;;;;7.63;5.43;;;26.40;68.80;;;;;;5078088;27;87927;-54
2023/10/02 03:33:20;;;;;;;11.60;6.13;;;26.40;68.90;;;;;;5059643;27;88647;-54
2023/10/02 03:35:58;;;;;;;18.03;7.13;;;26.40;68.70;;;;;;5072866;27;87501;-54
2023/10/02 03:38:26;;;;;;;11.27;6.63;;;26.30;68.70;;;;;;5077311;27;87489;-54
2023/10/02 03:40:55;;;;;;;12.57;5.80;;;26.30;68.70;;;;;;5076073;27;89393;-54
2023/10/02 03:43:35;;;;;;;10.43;5.63;;;26.30;68.70;;;;;;5076198;27;88620;-54
2023/10/02 03:46:06;;;;;;;10.10;5.90;;;26.30;68.80;;;;;;5076863;27;87960;-54
2023/10/02 03:48:34;;;;;;;10.83;6.03;;;26.30;68.70;;;;;;5080204;27;88645;-54
2023/10/02 03:51:04;;;;;;;8.90;5.33;;;26.30;68.80;;;;;;5080832;27;88853;-54
2023/10/02 03:53:33;;;;;;;11.70;6.20;;;26.30;68.90;;;;;;5081963;27;89572;-54
2023/10/02 03:58:45;;;;;;;7.20;3.83;;;26.30;68.80;;;;;;5078748;27;87634;-54
2023/10/02 04:01:17;;;;;;;8.50;5.33;;;26.30;68.90;;;;;;5078549;27;89651;-54
2023/10/02 04:04:09;;;;;;;10.73;5.57;;;26.30;68.90;;;;;;5084789;27;88242;-54
2023/10/02 04:06:37;;;;;;;9.93;5.60;;;26.30;68.80;;;;;;5085349;27;87366;-54
2023/10/02 04:09:17;;;;;;;10.07;5.17;;;26.20;68.70;;;;;;5084454;27;87601;-54
2023/10/02 04:11:45;;;;;;;11.30;5.00;;;26.20;68.80;;;;;;5084615;27;88537;-55
2023/10/02 04:14:31;;;;;;;12.67;5.27;;;26.20;68.80;;;;;;5084754;27;88020;-54
2023/10/02 04:17:13;;;;;;;6.23;4.33;;;26.20;68.80;;;;;;5085459;27;87401;-54
2023/10/02 04:19:43;;;;;;;10.63;4.60;;;26.20;68.80;;;;;;5074152;27;87536;-54
2023/10/02 04:22:19;;;;;;;9.50;4.67;;;26.20;69.00;;;;;;5083952;27;88330;-55
2023/10/02 04:25:03;;;;;;;8.27;4.03;;;26.20;68.90;;;;;;5064502;27;88991;-54
2023/10/02 04:28:00;;;;;;;9.07;4.93;;;26.20;68.80;;;;;;5067362;27;87022;-54
2023/10/02 04:30:24;;;;;;;10.10;5.10;;;26.20;68.80;;;;;;5084829;27;87641;-54
2023/10/02 04:32:52;;;;;;;8.53;4.23;;;26.20;69.00;;;;;;5084114;27;88560;-54
2023/10/02 04:38:08;;;;;;;8.20;4.53;;;26.20;68.80;;;;;;5075707;27;87472;-54
2023/10/02 04:40:49;;;;;;;6.70;3.67;;;26.20;68.80;;;;;;5084736;27;87671;-54
2023/10/02 04:43:22;;;;;;;7.80;4.70;;;26.20;68.80;;;;;;5083994;27;87525;-54
2023/10/02 04:45:52;;;;;;;8.83;3.87;;;26.20;68.80;;;;;;5084578;27;88086;-54
2023/10/02 04:48:26;;;;;;;10.83;4.53;;;26.20;68.90;;;;;;5084507;27;87462;-55
2023/10/02 04:50:56;;;;;;;8.83;4.83;;;26.20;68.80;;;;;;5084381;27;87525;-55
2023/10/02 04:53:25;;;;;;;6.73;3.53;;;26.20;69.00;;;;;;5084050;27;87631;-54
2023/10/02 04:58:49;;;;;;;4.23;3.20;;;26.20;68.70;;;;;;5049800;27;87405;-54
2023/10/02 05:01:28;;;;;;;7.83;4.20;;;26.20;68.70;;;;;;5075141;27;87470;-55
2023/10/02 05:04:01;;;;;;;7.13;4.53;;;26.20;68.80;;;;;;5084307;27;88568;-55
2023/10/02 05:06:52;;;;;;;7.80;3.90;;;26.20;68.70;;;;;;5084270;27;89156;-55
2023/10/02 05:09:25;;;;;;;5.80;3.60;;;26.10;68.80;;;;;;5084501;27;87340;-55
2023/10/02 05:11:55;;;;;;;8.00;3.90;;;26.20;68.80;;;;;;5084297;27;87275;-56
2023/10/02 05:14:26;;;;;;;10.70;4.70;;;26.20;68.90;;;;;;5080317;27;88515;-57
2023/10/02 05:17:16;;;;;;;6.67;4.17;;;26.20;68.80;;;;;;5083324;27;87354;-56
2023/10/02 05:19:57;;;;;;;5.47;3.37;;;26.20;69.90;;;;;;5084271;27;87137;-56
2023/10/02 05:22:27;;;;;;;9.13;3.57;;;26.20;69.00;;;;;;5082806;27;88257;-56
2023/10/02 05:24:58;;;;;;;7.67;4.13;;;26.20;69.00;;;;;;5082328;27;89673;-56
2023/10/02 05:27:30;;;;;;;7.07;3.70;;;26.20;69.10;;;;;;5083604;27;88994;-56
2023/10/02 05:29:58;;;;;;;5.60;3.70;;;26.30;69.20;;;;;;5083639;27;87359;-56
2023/10/02 05:32:31;;;;;;;6.73;3.60;;;26.20;69.20;;;;;;5083602;27;87617;-56
2023/10/02 05:35:04;;;;;;;8.47;3.73;;;26.30;69.30;;;;;;5082909;27;88481;-56
2023/10/02 05:37:34;;;;;;;7.60;3.67;;;26.30;69.30;;;;;;5083531;27;88033;-56
2023/10/02 05:42:53;;;;;;;8.53;4.47;;;26.30;69.30;;;;;;5082896;27;87303;-56
2023/10/02 05:45:37;;;;;;;11.97;4.40;;;26.20;69.20;;;;;;5082556;27;89532;-56
2023/10/02 05:48:14;;;;;;;6.43;3.33;;;26.30;69.40;;;;;;5083144;27;88009;-56
2023/10/02 05:50:47;;;;;;;9.93;4.67;;;26.30;69.50;;;;;;5082708;27;87265;-56
2023/10/02 05:53:15;;;;;;;6.60;3.93;;;26.30;69.50;;;;;;5083061;27;87701;-56
2023/10/02 05:55:56;;;;;;;6.40;3.77;;;26.30;69.60;;;;;;5082902;27;89567;-55
2023/10/02 05:58:31;;;;;;;8.83;3.57;;;26.30;69.40;;;;;;5082814;27;88026;-56
2023/10/02 06:01:02;;;;;;;6.90;3.47;;;26.30;69.60;;;;;;5083109;27;87542;-56
2023/10/02 06:03:34;;;;;;;8.90;4.20;;;26.40;69.70;;;;;;5082826;27;87436;-56
2023/10/02 06:08:55;;;;;;;8.43;3.43;;;26.00;69.30;;;;;;5056488;27;88035;-57
2023/10/02 06:11:26;;;;;;;5.03;3.00;;;26.40;70.00;;;;;;5062682;27;87166;-56
2023/10/02 06:13:55;;;;;;;5.80;3.13;;;26.40;69.70;;;;;;5080758;27;87583;-56
2023/10/02 06:16:26;;;;;;;6.97;3.87;;;26.40;69.70;;;;;;5070604;27;88392;-56
2023/10/02 06:19:01;;;;;;;5.43;3.40;;;26.40;70.70;;;;;;5075349;27;88003;-56
2023/10/02 06:21:30;;;;;;;5.17;3.33;;;26.40;69.80;;;;;;5063087;27;87513;-56
2023/10/02 06:23:59;;;;;;;3.53;2.93;;;26.40;69.90;;;;;;5074436;27;87491;-56
2023/10/02 06:26:29;;;;;;;8.47;3.60;;;26.40;69.80;;;;;;5081918;27;90177;-56
2023/10/02 06:31:58;;;;;;;7.23;3.00;;;26.40;70.00;;;;;;5061179;27;87559;-55
2023/10/02 06:34:36;;;;;;;2.90;2.50;;;26.40;69.90;;;;;;5062804;27;87453;-57
2023/10/02 06:37:08;;;;;;;6.70;3.07;;;26.40;69.90;;;;;;5066756;27;87420;-57
2023/10/02 06:39:36;;;;;;;5.07;3.00;;;26.40;70.00;;;;;;5082664;27;88018;-57
2023/10/02 06:42:05;;;;;;;3.60;2.50;;;26.40;70.20;;;;;;5082161;27;87309;-56
2023/10/02 06:44:42;;;;;;;6.60;3.47;;;26.50;70.30;;;;;;5082492;27;87683;-56
2023/10/02 06:47:13;;;;;;;5.37;2.77;;;26.40;70.20;;;;;;5081880;27;88910;-56
2023/10/02 06:49:44;;;;;;;5.07;2.80;;;26.50;70.20;;;;;;5080595;27;87771;-56
2023/10/02 06:52:15;;;;;;;6.90;2.97;;;26.40;70.40;;;;;;5082277;27;87173;-56
2023/10/02 06:54:44;;;;;;;5.43;2.27;;;26.40;70.20;;;;;;5082854;27;87561;-56
2023/10/02 06:57:13;;;;;;;3.73;2.93;;;26.40;70.20;;;;;;5082222;27;88540;-56
2023/10/02 06:59:51;;;;;;;8.60;3.57;;;26.40;71.00;;;;;;5082511;27;89030;-56
2023/10/02 07:02:20;;;;;;;5.10;2.77;;;26.50;71.20;;;;;;5081537;27;87589;-56
2023/10/02 07:04:50;;;;;;;7.67;2.73;;;26.40;70.30;;;;;;5082563;27;87752;-56
2023/10/02 07:07:23;;;;;;;4.93;3.10;;;26.40;71.10;;;;;;5082128;27;89512;-56
2023/10/02 07:09:52;;;;;;;6.23;3.37;;;26.40;71.30;;;;;;5082486;27;88036;-56
2023/10/02 07:12:20;;;;;;;6.67;2.87;;;26.40;70.40;;;;;;5081684;27;88032;-56
2023/10/02 07:14:49;;;;;;;8.33;2.53;;;26.50;70.30;;;;;;5082624;27;87566;-56
2023/10/02 07:17:17;;;;;;;7.07;3.00;;;26.40;70.50;;;;;;5081179;27;88514;-56
2023/10/02 07:19:50;;;;;;;5.03;2.67;;;26.40;70.40;;;;;;5082350;27;89080;-56
2023/10/02 07:22:23;;;;;;;5.53;2.73;;;26.40;70.50;;;;;;5085306;27;87992;-56
2023/10/02 07:24:55;;;;;;;5.70;2.77;;;26.40;70.50;;;;;;5072392;27;87511;-56
2023/10/02 07:27:25;;;;;;;5.30;2.90;;;26.40;70.60;;;;;;5082771;27;91033;-56
2023/10/02 07:29:57;;;;;;;5.43;2.70;;;26.40;70.50;;;;;;5086374;27;88967;-56
2023/10/02 07:32:26;;;;;;;8.70;2.80;;;26.40;71.00;;;;;;5084948;27;87431;-56
2023/10/02 07:35:09;;;;;;;7.33;3.00;;;26.40;70.60;;;;;;5085798;27;87656;-56
2023/10/02 07:37:38;;;;;;;6.27;3.10;;;26.40;70.70;;;;;;5084999;27;88504;-56
2023/10/02 07:40:07;;;;;;;4.13;2.37;;;26.40;70.50;;;;;;5085632;27;87818;-56
2023/10/02 07:42:35;;;;;;;4.30;2.53;;;26.50;70.70;;;;;;5085218;27;87415;-55
2023/10/02 07:45:24;;;;;;;4.40;3.03;;;26.50;70.50;;;;;;5084756;27;88733;-56
2023/10/02 07:48:12;;;;;;;5.90;2.10;;;26.50;70.70;;;;;;5069537;27;88494;-56
2023/10/02 07:50:44;;;;;;;5.50;2.50;;;26.50;71.40;;;;;;5085206;27;88983;-56
2023/10/02 07:53:12;;;;;;;4.67;2.77;;;26.50;70.50;;;;;;5082751;27;87644;-56
2023/10/02 07:55:43;;;;;;;3.43;2.27;;;26.50;70.50;;;;;;5084592;27;88448;-56
2023/10/02 07:58:13;;;;;;;4.77;2.00;;;26.50;70.50;;;;;;5085094;27;88573;-56
2023/10/02 08:00:41;;;;;;;4.73;2.20;;;26.50;70.50;;;;;;5084247;27;87799;-56
2023/10/02 08:05:58;;;;;;;4.37;2.47;;;26.50;70.50;;;;;;5082912;27;87547;-55
2023/10/02 08:08:31;;;;;;;4.90;1.90;;;26.40;70.50;;;;;;5082002;27;89661;-56
2023/10/02 08:11:02;;;;;;;7.30;2.67;;;26.50;70.50;;;;;;5084876;27;87845;-56
2023/10/02 08:13:36;;;;;;;5.27;2.63;;;26.40;70.50;;;;;;5085476;27;87348;-56
2023/10/02 08:16:08;;;;;;;5.57;2.33;;;26.40;70.50;;;;;;5085421;27;87611;-56
2023/10/02 08:18:56;;;;;;;8.77;2.50;;;26.40;70.60;;;;;;5085258;27;89764;-56
2023/10/02 08:21:34;;;;;;;4.60;1.80;;;26.40;70.60;;;;;;5085080;27;87499;-56
2023/10/02 08:24:05;;;;;;;5.20;2.40;;;26.40;70.70;;;;;;5085246;27;87522;-55
2023/10/02 08:26:40;;;;;;;5.97;2.57;;;26.40;70.60;;;;;;5085092;27;87687;-56
2023/10/02 08:29:08;;;;;;;4.77;2.43;;;26.40;70.50;;;;;;5084997;27;88484;-56
2023/10/02 08:31:42;;;;;;;3.47;2.17;;;26.40;70.50;;;;;;5085084;27;88105;-56
2023/10/02 08:34:12;;;;;;;5.30;2.50;;;26.40;70.50;;;;;;5084503;27;87454;-56
2023/10/02 08:36:44;;;;;;;5.13;2.30;;;26.40;70.60;;;;;;5085048;27;87389;-56
2023/10/02 08:39:12;;;;;;;5.80;2.10;;;26.40;70.50;;;;;;5084670;27;88497;-56
2023/10/02 08:41:46;;;;;;;4.00;1.70;;;26.40;70.60;;;;;;5084279;27;88737;-56
2023/10/02 08:44:14;;;;;;;3.47;2.00;;;26.40;70.50;;;;;;5084509;27;87447;-56
2023/10/02 08:46:43;;;;;;;3.83;1.70;;;26.40;70.60;;;;;;5085202;27;87533;-56
2023/10/02 08:49:13;;;;;;;3.80;1.93;;;26.40;70.50;;;;;;5085046;27;89762;-56
2023/10/02 08:51:48;;;;;;;5.60;2.80;;;26.40;70.50;;;;;;5084144;27;87969;-56
2023/10/02 08:54:19;;;;;;;3.07;1.97;;;26.40;70.50;;;;;;5084868;27;87203;-56
2023/10/02 08:56:48;;;;;;;5.00;2.33;;;26.40;70.50;;;;;;5084695;27;87256;-56
2023/10/02 08:59:16;;;;;;;3.63;2.10;;;26.40;70.40;;;;;;5084149;27;87302;-56
2023/10/02 09:01:47;;;;;;;6.03;2.27;;;26.40;70.30;;;;;;5084622;27;87705;-56
2023/10/02 09:07:28;;;;;;;1.93;1.73;;;26.50;70.50;;;;;;5058646;27;87518;-56
2023/10/02 09:10:18;;;;;;;4.23;1.87;;;26.50;70.40;;;;;;5084435;27;88623;-56
2023/10/02 09:12:50;;;;;;;4.13;1.87;;;26.40;70.40;;;;;;5084101;27;87983;-56
2023/10/02 09:15:29;;;;;;;3.33;1.77;;;26.40;70.30;;;;;;5084223;27;87270;-56
2023/10/02 09:18:16;;;;;;;2.90;1.77;;;26.40;70.50;;;;;;5084267;27;87151;-57
2023/10/02 09:20:53;;;;;;;2.57;1.43;;;26.40;70.30;;;;;;5083948;27;88681;-56
2023/10/02 09:23:27;;;;;;;2.57;1.53;;;26.40;70.30;;;;;;5084380;27;87848;-56
2023/10/02 09:26:16;;;;;;;5.40;2.20;;;26.40;70.20;;;;;;5083807;27;87297;-56
2023/10/02 09:28:58;;;;;;;5.23;2.07;;;26.50;70.30;;;;;;5084351;27;87398;-56
2023/10/02 09:31:27;;;;;;;4.50;1.90;;;26.40;70.20;;;;;;5083830;27;88312;-55
2023/10/02 09:33:56;;;;;;;3.50;1.73;;;26.40;70.20;;;;;;5083739;27;88236;-56
2023/10/02 09:36:52;;;;;;;8.13;1.63;;;26.40;70.20;;;;;;5084198;27;87602;-56
2023/10/02 09:39:41;;;;;;;2.67;1.60;;;26.50;70.20;;;;;;5083890;27;87641;-56
2023/10/02 09:42:11;;;;;;;6.17;1.77;;;26.40;70.20;;;;;;5083791;27;88660;-56
2023/10/02 09:44:45;;;;;;;6.67;2.50;;;26.40;70.20;;;;;;5081969;27;89141;-56
2023/10/02 09:47:14;;;;;;;3.70;2.07;;;26.40;70.10;;;;;;5083852;27;87343;-56
2023/10/02 09:49:47;;;;;;;3.03;1.60;;;26.40;70.10;;;;;;5083996;27;87636;-56
2023/10/02 09:52:23;;;;;;;5.57;1.53;;;26.40;70.00;;;;;;5083379;27;89692;-56
2023/10/02 09:54:53;;;;;;;2.37;2.00;;;26.50;70.00;;;;;;5083641;27;88063;-56
2023/10/02 09:57:25;;;;;;;4.20;1.83;;;26.50;70.90;;;;;;5083252;27;87813;-56
2023/10/02 09:59:55;;;;;;;8.63;2.73;;;26.50;70.10;;;;;;5083761;27;87192;-56
2023/10/02 10:08:18;;;;;;;5.53;2.50;;;26.50;70.00;;;;;;5083898;27;87352;-54
2023/10/02 10:10:47;;;;;;;3.27;1.70;;;26.50;70.20;;;;;;5083193;27;87235;-55
2023/10/02 10:13:32;;;;;;;5.53;2.23;;;26.50;70.20;;;;;;5083421;27;89521;-55
2023/10/02 10:16:38;;;;;;;5.50;2.67;;;26.50;70.30;;;;;;5083157;27;89027;-58
2023/10/02 10:19:26;;;;;;;19.10;4.93;;;26.50;70.20;;;;;;5083537;27;87316;-58
2023/10/02 10:21:58;;;;;;;17.37;5.00;;;26.60;70.40;;;;;;5083484;27;87734;-55
2023/10/02 10:24:51;;;;;;;17.80;4.90;;;26.60;70.50;;;;;;5082693;27;88824;-56
2023/10/02 10:27:58;;;;;;;18.30;4.70;;;26.70;70.70;;;;;;5083205;27;89100;-56
2023/10/02 10:30:55;;;;;;;14.87;4.30;;;26.70;71.00;;;;;;5000025;28;87703;-55
2023/10/02 10:33:45;;;;;;;17.53;5.57;;;26.70;71.00;;;;;;4998986;28;87734;-55
2023/10/02 10:36:35;;;;;;;10.73;3.47;;;26.70;71.00;;;;;;5064628;27;89823;-55
2023/10/02 10:41:57;;;;;;;10.33;3.87;;;26.80;71.10;;;;;;5082592;27;87293;-54
2023/10/02 10:44:36;;;;;;;9.53;3.27;;;26.80;71.10;;;;;;5082728;27;87556;-54
2023/10/02 10:47:06;;;;;;;10.13;3.53;;;26.80;71.10;;;;;;5082939;27;89662;-54
2023/10/02 10:49:53;;;;;;;12.93;3.73;;;26.70;71.10;;;;;;5082783;27;88332;-54
2023/10/02 10:52:34;;;;;;;10.50;3.27;;;26.80;71.20;;;;;;5082546;27;87299;-54
2023/10/02 10:55:32;;;;;;;5.40;2.83;;;26.80;71.20;;;;;;5082666;27;87594;-54
2023/10/02 10:58:01;;;;;;;12.03;3.27;;;26.80;71.10;;;;;;5082693;27;89684;-54
2023/10/02 11:00:39;;;;;;;12.60;3.00;;;26.80;71.30;;;;;;5082710;27;87819;-54
2023/10/02 11:03:14;;;;;;;12.00;3.63;;;26.80;71.30;;;;;;5082930;27;87317;-54
2023/10/02 11:05:43;;;;;;;7.93;2.93;;;26.80;71.30;;;;;;5082654;27;87479;-54
2023/10/02 11:08:23;;;;;;;9.30;2.90;;;27.10;72.30;;;;;;5082468;27;87763;-54
2023/10/02 11:11:06;;;;;;;11.90;2.40;;;26.80;71.40;;;;;;5082774;27;87906;-54
2023/10/02 11:13:50;;;;;;;10.03;2.93;;;26.70;71.10;;;;;;5082758;27;87297;-54
2023/10/02 11:16:32;;;;;;;15.13;3.10;;;26.70;71.10;;;;;;5082484;27;87375;-54
2023/10/02 11:19:13;;;;;;;7.67;2.53;;;26.70;71.10;;;;;;5082420;27;89695;-54
2023/10/02 11:22:02;;;;;;;8.63;3.20;;;26.70;71.20;;;;;;5082373;27;88311;-54
2023/10/02 11:24:30;;;;;;;8.90;2.60;;;26.70;71.10;;;;;;5080679;27;87394;-54
2023/10/02 11:27:07;;;;;;;10.13;2.43;;;26.70;71.10;;;;;;5082201;27;87556;-54
2023/10/02 11:29:40;;;;;;;4.67;2.87;;;26.70;71.20;;;;;;5082501;27;88537;-54
2023/10/02 11:32:22;;;;;;;6.63;2.80;;;26.70;71.10;;;;;;5082041;27;87811;-54
2023/10/02 11:34:58;;;;;;;4.87;2.07;;;26.70;71.00;;;;;;5082278;27;87387;-54
2023/10/02 11:37:28;;;;;;;3.97;2.33;;;26.70;71.10;;;;;;5082148;27;87285;-54
2023/10/02 11:39:57;;;;;;;7.00;2.80;;;26.70;71.10;;;;;;5082108;27;89682;-54
2023/10/02 11:42:25;;;;;;;9.73;2.20;;;26.70;71.00;;;;;;5082045;27;89161;-54
2023/10/02 11:44:54;;;;;;;6.77;2.50;;;26.80;71.10;;;;;;5081787;27;88147;-54
2023/10/02 11:47:24;;;;;;;3.97;1.83;;;26.80;71.10;;;;;;5082227;27;87551;-54
2023/10/02 11:49:53;;;;;;;6.77;1.77;;;26.80;71.90;;;;;;5081959;27;89400;-54
2023/10/02 11:52:21;;;;;;;7.13;2.50;;;26.70;71.20;;;;;;5081433;27;88063;-54
2023/10/02 11:54:49;;;;;;;5.70;2.07;;;26.80;71.10;;;;;;5081976;27;87341;-54
2023/10/02 11:57:18;;;;;;;4.77;2.13;;;26.80;71.10;;;;;;5081840;27;87166;-54
2023/10/02 11:59:47;;;;;;;5.90;2.83;;;26.80;71.10;;;;;;5073880;27;88566;-54
2023/10/02 12:02:17;;;;;;;8.57;2.10;;;26.80;71.80;;;;;;5081717;27;89025;-54
2023/10/02 12:04:45;;;;;;;6.47;2.10;;;26.80;71.00;;;;;;5081118;27;87387;-54
2023/10/02 12:07:22;;;;;;;5.50;2.00;;;26.80;70.90;;;;;;5080464;27;87654;-55
2023/10/02 12:09:57;;;;;;;3.17;2.20;;;26.80;70.90;;;;;;5084792;27;88423;-54
2023/10/02 12:12:28;;;;;;;9.60;2.30;;;26.80;70.80;;;;;;5085256;27;89047;-54
2023/10/02 12:14:57;;;;;;;6.37;2.57;;;26.80;70.90;;;;;;5085500;27;87533;-54
2023/10/02 12:17:25;;;;;;;3.37;1.60;;;26.80;70.90;;;;;;5077870;27;87691;-53
2023/10/02 12:19:53;;;;;;;8.60;1.97;;;26.80;70.90;;;;;;5084327;27;87456;-54
2023/10/02 12:22:26;;;;;;;6.40;2.47;;;26.80;70.90;;;;;;5083973;27;87556;-54
2023/10/02 12:24:54;;;;;;;4.53;1.73;;;26.80;70.80;;;;;;5077922;27;87295;-54
2023/10/02 12:27:22;;;;;;;5.13;2.20;;;26.90;70.80;;;;;;5074713;27;87466;-54
2023/10/02 12:29:50;;;;;;;3.40;1.40;;;26.90;70.90;;;;;;5069568;27;89638;-55
2023/10/02 12:32:19;;;;;;;4.83;1.80;;;26.90;70.80;;;;;;5082325;27;88043;-54
2023/10/02 12:34:47;;;;;;;6.00;1.93;;;26.80;70.80;;;;;;5084558;27;87293;-54
2023/10/02 12:37:18;;;;;;;3.33;1.50;;;26.80;70.70;;;;;;5078412;27;87621;-53
2023/10/02 12:39:47;;;;;;;3.23;1.53;;;26.80;70.80;;;;;;5078987;27;89610;-53
2023/10/02 12:42:16;;;;;;;3.60;1.90;;;26.90;71.80;;;;;;5084204;27;88294;-54
2023/10/02 12:44:44;;;;;;;3.97;1.93;;;26.90;70.90;;;;;;5077269;27;87505;-54
2023/10/02 12:47:12;;;;;;;2.00;1.60;;;26.90;70.90;;;;;;5084065;27;88004;-54
2023/10/02 12:49:40;;;;;;;2.93;1.60;;;26.90;70.80;;;;;;5073784;27;88541;-54
2023/10/02 12:52:09;;;;;;;7.97;2.23;;;26.90;70.80;;;;;;5084222;27;87997;-54
2023/10/02 12:54:37;;;;;;;3.47;1.70;;;26.90;70.70;;;;;;5084866;27;87200;-54
2023/10/02 12:57:07;;;;;;;4.17;2.10;;;27.00;70.90;;;;;;5084519;27;87223;-54
2023/10/02 12:59:37;;;;;;;3.77;1.30;;;27.00;70.80;;;;;;5084547;27;88553;-53
2023/10/02 13:02:07;;;;;;;3.17;1.53;;;26.90;70.80;;;;;;5084416;27;88074;-54
2023/10/02 13:04:36;;;;;;;3.07;1.93;;;26.90;70.70;;;;;;5083725;27;88106;-55
2023/10/02 13:17:45;;;;;;;7.13;2.50;;;27.00;70.80;;;;;;5007789;28;87457;-55
2023/10/02 13:20:13;;;;;;;3.73;2.30;;;26.90;70.70;;;;;;5080947;27;87774;-55
2023/10/02 13:22:41;;;;;;;7.43;3.03;;;27.00;71.70;;;;;;5083503;27;88636;-56
2023/10/02 13:25:11;;;;;;;13.00;3.43;;;27.00;70.80;;;;;;5083732;27;88384;-56
2023/10/02 13:27:40;;;;;;;11.60;3.43;;;27.00;70.80;;;;;;5077636;27;88957;-56
2023/10/02 13:30:11;;;;;;;9.97;3.13;;;27.10;70.70;;;;;;5083360;27;87331;-56
2023/10/02 13:32:40;;;;;;;7.13;2.97;;;27.10;70.80;;;;;;5083297;27;89625;-56
2023/10/02 13:35:10;;;;;;;6.33;2.47;;;27.10;70.60;;;;;;5083524;27;87976;-56
2023/10/02 13:37:39;;;;;;;7.63;2.63;;;27.10;70.70;;;;;;5083232;27;87233;-56
2023/10/02 13:40:25;;;;;;;7.07;2.87;;;27.10;71.60;;;;;;5082663;27;87165;-55
2023/10/02 13:42:54;;;;;;;9.07;2.87;;;27.10;70.70;;;;;;5077333;27;88694;-55
2023/10/02 13:48:05;;;;;;;5.20;2.60;;;27.10;70.70;;;;;;5028689;27;87853;-56
2023/10/02 13:50:37;;;;;;;8.70;2.97;;;27.10;70.70;;;;;;5079177;27;87638;-55
2023/10/02 13:53:25;;;;;;;9.30;3.07;;;27.10;70.70;;;;;;5079055;27;88283;-56
2023/10/02 13:55:53;;;;;;;8.97;3.33;;;27.20;70.70;;;;;;5083355;27;88773;-55
2023/10/02 13:58:22;;;;;;;6.53;2.87;;;27.20;70.70;;;;;;5083412;27;87292;-56
2023/10/02 14:00:50;;;;;;;8.57;2.93;;;27.20;70.70;;;;;;5074797;27;89634;-56
2023/10/02 14:03:18;;;;;;;4.90;2.67;;;27.20;70.80;;;;;;5062727;27;87463;-56